Time;durP1;ratioP1;P1;durP2;ratioP2;P2;SDS_P1;SDS_P2;PMS_P1;PMS_P2;Temp;Humidity;BMP_temperature;BMP_pressure;BME280_temperature;BME280_humidity;BME280_pressure;Samples;Min_cycle;Max_cycle;Signal;HPM_P1;HPM_P2
2020/12/02 00:00:29;;;;;;;443.88;30.98;;;1.70;99.30;;;;;;5014121;28;20557;-73
2020/12/02 00:03:11;;;;;;;290.67;21.92;;;1.70;99.40;;;;;;5018723;28;20087;-72
2020/12/02 00:05:43;;;;;;;563.88;32.95;;;1.70;99.50;;;;;;5030599;28;20049;-73
2020/12/02 00:08:18;;;;;;;543.92;33.28;;;1.60;99.40;;;;;;5031884;28;20503;-73
2020/12/02 00:10:45;;;;;;;337.85;26.33;;;1.70;99.40;;;;;;5032279;28;20038;-73
2020/12/02 00:13:21;;;;;;;459.38;32.53;;;1.70;99.40;;;;;;5030676;28;20532;-73
2020/12/02 00:15:48;;;;;;;666.58;42.90;;;1.70;99.10;;;;;;5030047;28;20099;-73
2020/12/02 00:18:15;;;;;;;387.52;27.05;;;1.70;99.20;;;;;;5031746;28;20164;-73
2020/12/02 00:20:42;;;;;;;413.40;28.27;;;1.70;99.70;;;;;;5031451;28;20061;-73
2020/12/02 00:23:08;;;;;;;353.83;29.35;;;1.70;99.30;;;;;;5032295;28;20137;-73
2020/12/02 00:25:35;;;;;;;261.33;26.90;;;1.70;99.30;;;;;;5028765;28;20061;-73
2020/12/02 00:28:03;;;;;;;412.17;27.95;;;1.80;99.30;;;;;;5031710;28;20095;-73
2020/12/02 00:30:33;;;;;;;175.68;17.05;;;1.80;99.00;;;;;;5030832;28;20092;-73
2020/12/02 00:33:10;;;;;;;637.80;44.42;;;1.90;99.00;;;;;;5031744;28;20068;-74
2020/12/02 00:35:36;;;;;;;313.50;24.90;;;1.80;98.80;;;;;;5030953;28;20149;-73
2020/12/02 00:38:05;;;;;;;270.90;21.00;;;1.80;99.00;;;;;;5031588;28;20045;-73
2020/12/02 00:40:31;;;;;;;379.50;32.83;;;1.90;98.90;;;;;;5030388;28;20103;-74
2020/12/02 00:42:57;;;;;;;579.63;32.58;;;1.80;99.10;;;;;;5031643;28;20081;-73
2020/12/02 00:45:24;;;;;;;273.15;22.80;;;1.80;98.90;;;;;;5030840;28;20199;-73
2020/12/02 00:47:51;;;;;;;241.50;20.70;;;1.80;99.00;;;;;;5030784;28;20091;-73
2020/12/02 00:50:19;;;;;;;413.67;27.02;;;1.80;99.20;;;;;;5028964;28;20498;-73
2020/12/02 00:52:58;;;;;;;384.00;25.05;;;1.80;99.00;;;;;;5031353;28;20042;-73
2020/12/02 00:55:24;;;;;;;416.50;29.23;;;1.80;98.80;;;;;;5030464;28;20387;-73
2020/12/02 00:57:52;;;;;;;566.80;33.85;;;1.70;99.20;;;;;;5031313;28;20128;-73
2020/12/02 01:00:19;;;;;;;512.13;32.78;;;1.60;99.40;;;;;;5029406;28;20504;-73
2020/12/02 01:02:52;;;;;;;369.17;28.23;;;1.70;99.70;;;;;;5031736;28;20417;-73
2020/12/02 01:05:19;;;;;;;557.33;33.97;;;1.60;99.60;;;;;;5029603;28;20137;-73
2020/12/02 01:07:46;;;;;;;283.23;23.50;;;1.60;99.40;;;;;;5030161;28;20514;-73
2020/12/02 01:10:13;;;;;;;380.17;28.00;;;1.70;99.30;;;;;;5030726;28;20424;-74
2020/12/02 01:12:44;;;;;;;210.80;19.25;;;1.70;99.20;;;;;;5030513;28;20049;-73
2020/12/02 01:15:12;;;;;;;329.90;23.63;;;1.70;99.30;;;;;;5029255;28;20120;-74
2020/12/02 01:17:39;;;;;;;418.23;27.38;;;1.70;99.20;;;;;;5028804;28;20041;-73
2020/12/02 01:20:08;;;;;;;354.75;24.75;;;1.70;99.00;;;;;;5030670;28;20080;-73
2020/12/02 01:22:39;;;;;;;186.63;19.02;;;1.60;99.10;;;;;;5030101;28;20107;-73
2020/12/02 01:25:24;;;;;;;125.32;16.40;;;1.60;99.50;;;;;;5028879;28;20099;-73
2020/12/02 01:28:09;;;;;;;276.45;21.67;;;1.70;99.30;;;;;;5030502;28;20084;-73
2020/12/02 01:30:38;;;;;;;274.88;23.05;;;1.70;99.40;;;;;;5028787;28;20076;-73
2020/12/02 01:33:05;;;;;;;269.35;24.02;;;1.60;99.40;;;;;;5030667;28;20182;-73
2020/12/02 01:35:32;;;;;;;311.35;26.17;;;1.60;99.30;;;;;;5028609;28;20080;-73
2020/12/02 01:38:03;;;;;;;233.50;21.35;;;1.50;99.30;;;;;;5030599;28;20149;-73
2020/12/02 01:40:33;;;;;;;180.18;19.23;;;1.50;99.50;;;;;;5030277;28;20088;-73
2020/12/02 01:43:05;;;;;;;136.50;18.30;;;1.60;99.60;;;;;;5029936;28;20099;-73
2020/12/02 01:45:33;;;;;;;229.15;20.75;;;1.60;99.40;;;;;;5027268;28;20197;-73
2020/12/02 01:48:02;;;;;;;61.97;15.07;;;1.60;99.20;;;;;;5030681;28;20077;-73
2020/12/02 01:50:40;;;;;;;240.73;22.45;;;1.60;99.50;;;;;;5029783;28;20045;-73
2020/12/02 01:53:28;;;;;;;378.77;29.75;;;1.60;99.20;;;;;;5011319;28;20096;-73
2020/12/02 01:55:59;;;;;;;197.35;22.42;;;1.60;99.10;;;;;;5027676;28;20080;-73
2020/12/02 01:58:44;;;;;;;453.75;29.85;;;1.60;99.30;;;;;;5030519;28;20052;-73
2020/12/02 02:01:23;;;;;;;100.95;16.52;;;1.50;99.30;;;;;;5018795;28;20504;-73
2020/12/02 02:03:51;;;;;;;164.57;19.77;;;1.60;99.40;;;;;;5029657;28;20100;-73
2020/12/02 02:06:31;;;;;;;132.93;17.17;;;1.60;99.40;;;;;;5028847;28;20543;-73
2020/12/02 02:08:58;;;;;;;152.90;17.77;;;1.60;99.30;;;;;;5028980;28;20075;-73
2020/12/02 02:11:24;;;;;;;328.30;26.17;;;1.70;99.10;;;;;;5030581;28;20121;-73
2020/12/02 02:13:53;;;;;;;502.80;32.08;;;1.70;98.80;;;;;;5029126;28;20124;-73
2020/12/02 02:16:38;;;;;;;463.20;33.70;;;1.60;98.80;;;;;;5026303;28;20084;-72
2020/12/02 02:19:04;;;;;;;376.77;24.20;;;1.60;99.10;;;;;;5020274;28;20068;-73
2020/12/02 02:21:34;;;;;;;210.27;20.55;;;1.50;99.20;;;;;;5029298;28;20077;-73
2020/12/02 02:24:00;;;;;;;331.48;28.77;;;1.50;99.30;;;;;;5028624;28;20136;-73
2020/12/02 02:26:39;;;;;;;325.70;23.10;;;1.60;99.30;;;;;;5027030;28;20564;-73
2020/12/02 02:29:32;;;;;;;320.08;26.15;;;1.60;99.20;;;;;;5028855;28;20053;-73
2020/12/02 02:32:02;;;;;;;499.02;35.00;;;1.50;99.30;;;;;;5022926;28;20120;-73
2020/12/02 02:34:30;;;;;;;465.80;33.58;;;1.50;99.40;;;;;;5028147;28;20076;-73
2020/12/02 02:37:00;;;;;;;346.92;25.67;;;1.40;99.50;;;;;;5028800;28;20120;-73
2020/12/02 02:39:27;;;;;;;243.00;23.58;;;1.40;99.60;;;;;;5028709;28;20054;-73
2020/12/02 02:42:06;;;;;;;182.98;20.52;;;1.50;99.80;;;;;;5028469;28;20140;-73
2020/12/02 02:44:33;;;;;;;373.35;27.95;;;1.50;99.50;;;;;;5023249;28;20052;-73
2020/12/02 02:47:00;;;;;;;503.50;34.83;;;1.50;99.60;;;;;;5026158;28;20132;-73
2020/12/02 02:49:26;;;;;;;220.18;21.95;;;1.50;99.40;;;;;;5027479;28;20116;-73
2020/12/02 02:51:53;;;;;;;96.63;16.25;;;1.50;99.50;;;;;;5027910;28;20072;-73
2020/12/02 02:54:19;;;;;;;498.20;32.08;;;1.40;99.50;;;;;;5028158;28;20147;-73
2020/12/02 02:56:46;;;;;;;963.22;60.30;;;1.40;99.40;;;;;;5027442;28;20119;-73
2020/12/02 02:59:12;;;;;;;854.17;55.95;;;1.40;99.50;;;;;;5029282;28;20469;-73
2020/12/02 03:01:45;;;;;;;674.88;43.90;;;1.20;99.70;;;;;;5028328;28;20491;-73
2020/12/02 03:04:16;;;;;;;375.25;29.73;;;1.20;99.90;;;;;;5026560;28;20521;-73
2020/12/02 03:06:42;;;;;;;422.40;30.80;;;1.30;99.90;;;;;;5028297;28;20118;-73
2020/12/02 03:09:11;;;;;;;490.67;34.80;;;1.40;99.90;;;;;;5028853;28;20463;-73
2020/12/02 03:11:39;;;;;;;170.52;25.67;;;1.40;99.50;;;;;;5028159;28;20147;-73
2020/12/02 03:14:06;;;;;;;113.80;25.90;;;1.30;99.50;;;;;;5019332;28;20129;-73
2020/12/02 03:16:42;;;;;;;111.93;23.25;;;1.30;99.50;;;;;;5028125;28;20129;-73
2020/12/02 03:19:22;;;;;;;84.60;23.00;;;1.30;99.50;;;;;;5028700;28;20167;-73
2020/12/02 03:21:51;;;;;;;57.10;20.55;;;1.30;99.50;;;;;;5026915;28;20041;-72
2020/12/02 03:24:19;;;;;;;53.72;20.98;;;1.40;99.30;;;;;;5025950;28;20136;-72
2020/12/02 03:26:49;;;;;;;62.83;21.80;;;1.30;99.00;;;;;;5028603;28;20085;-71
2020/12/02 03:29:17;;;;;;;62.83;22.15;;;1.20;99.20;;;;;;5027960;28;20454;-71
2020/12/02 03:31:44;;;;;;;56.97;23.10;;;1.20;99.20;;;;;;5028653;28;20041;-72
2020/12/02 03:34:16;;;;;;;43.15;19.02;;;1.30;99.40;;;;;;5028229;28;20096;-71
2020/12/02 03:36:43;;;;;;;65.07;23.88;;;1.30;99.20;;;;;;5027724;28;20054;-73
2020/12/02 03:39:12;;;;;;;71.28;26.75;;;1.20;99.10;;;;;;5028180;28;20080;-72
2020/12/02 03:41:39;;;;;;;59.55;24.15;;;1.10;99.30;;;;;;5031570;28;20168;-72
2020/12/02 03:44:06;;;;;;;67.88;26.42;;;1.20;99.30;;;;;;5028448;28;20049;-71
2020/12/02 03:46:33;;;;;;;75.63;27.40;;;1.20;99.20;;;;;;5032486;28;20196;-73
2020/12/02 03:49:02;;;;;;;48.80;21.52;;;1.10;99.30;;;;;;5031644;28;20125;-71
2020/12/02 03:51:33;;;;;;;76.15;24.77;;;1.20;99.50;;;;;;5027235;28;20133;-71
2020/12/02 03:53:59;;;;;;;80.35;27.50;;;1.20;99.30;;;;;;5029528;28;20548;-71
2020/12/02 03:56:27;;;;;;;91.18;30.40;;;1.20;99.40;;;;;;5031387;28;20132;-72
2020/12/02 03:58:53;;;;;;;78.10;27.42;;;1.10;99.40;;;;;;5031236;28;20092;-72
2020/12/02 04:01:20;;;;;;;69.43;26.85;;;1.20;99.40;;;;;;5031724;28;20095;-72
2020/12/02 04:03:46;;;;;;;95.72;29.23;;;1.20;99.50;;;;;;5030821;28;20048;-72
2020/12/02 04:06:14;;;;;;;91.43;29.88;;;1.20;99.20;;;;;;5031453;28;20128;-72
2020/12/02 04:08:43;;;;;;;116.57;34.00;;;1.20;99.20;;;;;;5030883;28;20096;-72
2020/12/02 04:11:10;;;;;;;108.40;31.83;;;1.20;99.30;;;;;;5026791;28;20481;-72
2020/12/02 04:13:37;;;;;;;59.45;25.58;;;1.20;99.30;;;;;;5028698;28;20056;-72
2020/12/02 04:16:04;;;;;;;61.25;24.50;;;1.30;99.30;;;;;;5031919;28;20519;-72
2020/12/02 04:18:31;;;;;;;142.13;35.50;;;1.30;99.00;;;;;;5031095;28;20077;-72
2020/12/02 04:20:57;;;;;;;74.53;26.65;;;1.30;98.90;;;;;;5030545;28;20103;-72
2020/12/02 04:23:24;;;;;;;146.00;33.90;;;1.30;99.00;;;;;;5029550;28;20081;-72
2020/12/02 04:25:50;;;;;;;90.05;30.65;;;1.30;98.80;;;;;;5030168;28;20059;-72
2020/12/02 04:28:17;;;;;;;122.45;34.17;;;1.20;99.30;;;;;;5030471;28;20077;-71
2020/12/02 04:30:45;;;;;;;97.78;30.70;;;1.20;99.40;;;;;;5030892;28;20240;-72
2020/12/02 04:33:12;;;;;;;101.18;30.95;;;1.20;99.30;;;;;;5027834;28;20563;-72
2020/12/02 04:35:39;;;;;;;101.22;30.05;;;1.20;99.40;;;;;;5030902;28;20048;-72
2020/12/02 04:38:08;;;;;;;79.85;28.77;;;1.20;99.40;;;;;;5030237;28;20091;-71
2020/12/02 04:40:38;;;;;;;103.72;32.30;;;1.20;99.20;;;;;;5029897;28;20162;-72
2020/12/02 04:43:18;;;;;;;114.55;32.95;;;1.20;99.40;;;;;;5030347;28;20136;-72
2020/12/02 04:45:47;;;;;;;122.45;34.60;;;1.10;99.30;;;;;;5030665;28;20132;-71
2020/12/02 04:48:18;;;;;;;78.45;28.92;;;1.10;99.40;;;;;;5030765;28;20120;-72
2020/12/02 04:50:44;;;;;;;104.55;31.90;;;1.20;99.50;;;;;;5029113;28;20048;-72
2020/12/02 04:53:16;;;;;;;112.00;32.03;;;1.20;99.20;;;;;;5029492;28;20166;-72
2020/12/02 04:55:45;;;;;;;145.15;38.25;;;1.20;99.20;;;;;;5030835;28;20044;-72
2020/12/02 04:58:16;;;;;;;95.15;29.15;;;1.10;99.40;;;;;;5030026;28;20095;-72
2020/12/02 05:00:42;;;;;;;90.00;30.88;;;1.10;99.50;;;;;;5030199;28;20410;-72
2020/12/02 05:03:13;;;;;;;101.38;32.40;;;1.20;99.50;;;;;;5029882;28;20228;-72
2020/12/02 05:05:40;;;;;;;215.85;42.70;;;1.10;99.50;;;;;;5022625;28;20399;-72
2020/12/02 05:08:29;;;;;;;81.93;29.88;;;1.10;99.50;;;;;;5028752;28;20041;-72
2020/12/02 05:10:57;;;;;;;142.20;32.60;;;1.10;99.60;;;;;;5030072;28;20547;-72
2020/12/02 05:13:26;;;;;;;153.00;32.35;;;1.20;99.70;;;;;;5030488;28;20148;-72
2020/12/02 05:16:07;;;;;;;135.93;34.55;;;1.20;99.30;;;;;;5029589;28;20100;-71
2020/12/02 05:18:34;;;;;;;268.20;39.22;;;1.20;99.30;;;;;;5024932;28;20048;-72
2020/12/02 05:21:05;;;;;;;118.60;35.72;;;1.20;99.30;;;;;;5030157;28;20072;-72
2020/12/02 05:23:32;;;;;;;97.25;33.53;;;1.20;99.40;;;;;;5028565;28;20132;-72
2020/12/02 05:25:58;;;;;;;113.63;33.22;;;1.10;99.40;;;;;;5029305;28;20479;-71
2020/12/02 05:28:31;;;;;;;62.67;27.55;;;1.10;99.60;;;;;;5029205;28;20140;-72
2020/12/02 05:31:12;;;;;;;124.07;34.72;;;1.20;99.40;;;;;;5028205;28;20077;-72
2020/12/02 05:33:40;;;;;;;169.35;38.22;;;1.30;99.10;;;;;;5028957;28;20145;-72
2020/12/02 05:36:24;;;;;;;76.35;30.25;;;1.20;99.10;;;;;;5031106;28;20073;-72
2020/12/02 05:38:59;;;;;;;138.65;34.45;;;1.30;99.30;;;;;;5028398;28;20467;-72
2020/12/02 05:41:27;;;;;;;94.93;30.80;;;1.30;99.00;;;;;;5030276;28;20127;-72
2020/12/02 05:44:01;;;;;;;91.07;31.33;;;1.30;99.00;;;;;;5028878;28;20053;-71
2020/12/02 05:46:47;;;;;;;123.97;35.85;;;1.30;99.00;;;;;;5027480;28;20152;-72
2020/12/02 05:49:23;;;;;;;127.72;36.22;;;1.20;98.80;;;;;;5030197;28;20092;-72
2020/12/02 05:51:51;;;;;;;141.60;36.92;;;1.20;99.00;;;;;;5029760;28;20196;-71
2020/12/02 05:54:21;;;;;;;75.85;30.60;;;1.10;99.10;;;;;;5029890;28;20100;-72
2020/12/02 05:56:48;;;;;;;122.30;35.42;;;1.30;99.10;;;;;;5030431;28;20073;-72
2020/12/02 05:59:16;;;;;;;77.30;30.70;;;1.20;99.00;;;;;;5029789;28;20132;-71
2020/12/02 06:01:44;;;;;;;92.13;33.33;;;1.20;99.10;;;;;;5029603;28;20427;-72
2020/12/02 06:04:13;;;;;;;101.03;35.63;;;1.20;98.80;;;;;;5028878;28;20213;-72
2020/12/02 06:06:39;;;;;;;106.50;35.95;;;1.20;98.90;;;;;;5029580;28;20481;-72
2020/12/02 06:09:06;;;;;;;98.35;35.63;;;1.10;98.80;;;;;;5027919;28;20049;-72
2020/12/02 06:11:37;;;;;;;67.13;28.33;;;1.10;99.00;;;;;;5030116;28;20111;-72
2020/12/02 06:14:29;;;;;;;73.28;31.08;;;1.20;99.00;;;;;;5028929;28;20411;-72
2020/12/02 06:16:56;;;;;;;61.22;27.02;;;1.20;98.70;;;;;;5030178;28;20388;-72
2020/12/02 06:19:37;;;;;;;82.60;30.52;;;1.20;98.60;;;;;;5029987;28;20137;-72
2020/12/02 06:22:06;;;;;;;69.45;29.55;;;1.10;98.40;;;;;;5030146;28;20163;-72
2020/12/02 06:24:42;;;;;;;69.57;29.30;;;1.10;98.20;;;;;;5030380;28;20537;-72
2020/12/02 06:27:15;;;;;;;57.53;25.75;;;1.20;98.60;;;;;;5030119;28;20049;-72
2020/12/02 06:29:50;;;;;;;59.70;27.27;;;1.20;98.40;;;;;;5028921;28;20156;-73
2020/12/02 06:32:24;;;;;;;63.50;26.17;;;1.20;98.20;;;;;;5028607;28;20528;-72
2020/12/02 06:35:13;;;;;;;50.15;25.48;;;1.30;98.10;;;;;;5030172;28;20053;-73
2020/12/02 06:37:39;;;;;;;71.05;30.55;;;1.30;98.10;;;;;;5027525;28;20124;-72
2020/12/02 06:40:06;;;;;;;48.72;25.25;;;1.20;98.10;;;;;;5029646;28;20403;-72
2020/12/02 06:42:35;;;;;;;50.55;24.13;;;1.20;98.10;;;;;;5029636;28;20053;-72
2020/12/02 06:45:07;;;;;;;54.72;25.92;;;1.20;98.10;;;;;;5028882;28;20089;-71
2020/12/02 06:47:37;;;;;;;64.30;28.00;;;1.20;98.00;;;;;;5029508;28;20569;-71
2020/12/02 06:50:11;;;;;;;58.28;26.55;;;1.20;98.20;;;;;;5029146;28;20127;-71
2020/12/02 06:52:39;;;;;;;49.40;24.00;;;1.20;98.10;;;;;;5030043;28;20123;-70
2020/12/02 06:55:23;;;;;;;60.72;27.73;;;1.20;98.10;;;;;;5029825;28;20128;-71
2020/12/02 06:58:01;;;;;;;60.08;27.60;;;1.20;98.20;;;;;;5028890;28;20128;-71
2020/12/02 07:00:41;;;;;;;51.30;24.70;;;1.20;98.10;;;;;;5030011;28;20132;-71
2020/12/02 07:03:26;;;;;;;48.17;23.20;;;1.10;97.90;;;;;;5029165;28;20045;-73
2020/12/02 07:06:16;;;;;;;59.80;27.00;;;1.20;98.20;;;;;;5025955;28;20087;-71
2020/12/02 07:08:45;;;;;;;47.10;23.30;;;1.10;98.00;;;;;;5029124;28;20059;-71
2020/12/02 07:11:11;;;;;;;57.45;26.63;;;1.10;98.00;;;;;;5028662;28;20072;-71
2020/12/02 07:13:46;;;;;;;56.90;25.42;;;1.10;97.90;;;;;;5029452;28;20072;-70
2020/12/02 07:16:31;;;;;;;50.05;23.70;;;1.10;97.80;;;;;;5029338;28;20269;-71
2020/12/02 07:19:03;;;;;;;63.95;28.40;;;1.10;98.00;;;;;;5029589;28;20077;-71
2020/12/02 07:21:31;;;;;;;50.17;24.17;;;1.10;97.90;;;;;;5028917;28;20055;-71
2020/12/02 07:23:59;;;;;;;51.67;24.73;;;1.20;98.00;;;;;;5028879;28;20081;-71
2020/12/02 07:26:26;;;;;;;45.42;23.50;;;1.20;97.70;;;;;;5028838;28;20132;-71
2020/12/02 07:29:18;;;;;;;42.38;21.73;;;1.30;97.50;;;;;;5028949;28;20176;-72
2020/12/02 07:31:45;;;;;;;54.92;23.55;;;1.30;97.50;;;;;;5023133;28;20135;-71
2020/12/02 07:34:16;;;;;;;49.15;24.08;;;1.30;97.10;;;;;;5028946;28;20495;-71
2020/12/02 07:36:43;;;;;;;43.78;21.70;;;1.30;97.20;;;;;;5028467;28;20518;-72
2020/12/02 07:39:21;;;;;;;45.22;23.83;;;1.20;97.10;;;;;;5028465;28;20124;-72
2020/12/02 07:42:02;;;;;;;48.58;23.95;;;1.20;97.40;;;;;;5028665;28;20556;-73
2020/12/02 07:44:31;;;;;;;45.97;24.10;;;1.20;97.40;;;;;;5029113;28;20537;-72
2020/12/02 07:47:01;;;;;;;49.33;23.80;;;1.20;97.50;;;;;;5025209;28;20073;-72
2020/12/02 07:49:30;;;;;;;45.60;23.15;;;1.10;97.40;;;;;;5026470;28;20052;-72
2020/12/02 07:52:17;;;;;;;49.08;25.08;;;1.20;97.40;;;;;;5027663;28;20558;-72
2020/12/02 07:54:44;;;;;;;46.80;24.42;;;1.20;97.40;;;;;;5028489;28;20046;-72
2020/12/02 07:57:13;;;;;;;48.33;24.70;;;1.10;97.30;;;;;;5028763;28;20140;-72
2020/12/02 08:00:00;;;;;;;43.00;22.70;;;1.10;97.30;;;;;;5029168;28;20065;-72
2020/12/02 08:02:28;;;;;;;34.72;18.45;;;1.20;97.20;;;;;;5028285;28;20053;-73
2020/12/02 08:04:59;;;;;;;37.72;19.15;;;1.30;97.00;;;;;;5028900;28;20153;-73
2020/12/02 08:07:45;;;;;;;38.67;19.33;;;1.40;97.00;;;;;;5027153;28;20129;-73
2020/12/02 08:10:23;;;;;;;35.30;18.08;;;1.40;96.30;;;;;;5009243;28;20077;-73
2020/12/02 08:12:50;;;;;;;42.80;20.00;;;1.50;96.70;;;;;;5009004;28;20474;-72
2020/12/02 08:15:17;;;;;;;33.88;18.23;;;1.60;96.60;;;;;;5022999;28;20061;-73
2020/12/02 08:18:18;;;;;;;33.88;18.20;;;1.60;96.40;;;;;;5027783;28;20073;-72
2020/12/02 08:20:46;;;;;;;42.53;20.77;;;1.70;96.40;;;;;;5028588;28;20089;-72
2020/12/02 08:23:24;;;;;;;38.83;21.08;;;1.60;95.80;;;;;;5028334;28;20052;-72
2020/12/02 08:26:12;;;;;;;35.47;19.10;;;1.60;96.30;;;;;;5029291;28;20569;-72
2020/12/02 08:28:43;;;;;;;38.00;20.55;;;1.60;96.30;;;;;;5031308;28;20470;-73
2020/12/02 08:31:15;;;;;;;41.28;20.60;;;1.60;96.20;;;;;;5032016;28;20332;-72
2020/12/02 08:34:01;;;;;;;44.43;23.60;;;1.60;96.50;;;;;;5030953;28;20103;-72
2020/12/02 08:36:28;;;;;;;45.20;22.52;;;1.50;96.50;;;;;;5030473;28;20419;-73
2020/12/02 08:38:54;;;;;;;38.45;21.08;;;1.40;96.50;;;;;;5032076;28;20103;-72
2020/12/02 08:41:20;;;;;;;38.03;20.77;;;1.40;96.70;;;;;;5031980;28;20076;-72
2020/12/02 08:43:47;;;;;;;39.17;19.83;;;1.50;96.60;;;;;;5031595;28;20532;-72
2020/12/02 08:46:23;;;;;;;37.67;19.95;;;1.60;96.60;;;;;;5031871;28;20119;-72
2020/12/02 08:48:55;;;;;;;37.78;20.98;;;1.50;96.40;;;;;;5030440;28;20153;-72
2020/12/02 08:51:23;;;;;;;40.65;20.95;;;1.40;96.60;;;;;;5031930;28;20135;-73
2020/12/02 08:53:51;;;;;;;37.15;20.35;;;1.50;96.60;;;;;;5031646;28;20510;-73
2020/12/02 08:56:34;;;;;;;33.05;18.23;;;1.60;96.40;;;;;;5031846;28;20080;-73
2020/12/02 08:59:02;;;;;;;41.13;20.88;;;1.70;96.40;;;;;;5031794;28;20173;-74
2020/12/02 09:01:28;;;;;;;31.40;18.15;;;1.70;96.30;;;;;;5031437;28;20102;-75
2020/12/02 09:03:55;;;;;;;37.92;20.52;;;1.60;96.20;;;;;;5031800;28;20073;-74
2020/12/02 09:06:22;;;;;;;37.03;20.77;;;1.70;96.10;;;;;;5031739;28;20475;-73
2020/12/02 09:08:50;;;;;;;46.83;22.40;;;1.70;96.10;;;;;;5030619;28;20467;-72
2020/12/02 09:11:29;;;;;;;41.28;20.33;;;1.50;95.90;;;;;;5030562;28;20193;-74
2020/12/02 09:13:56;;;;;;;46.33;23.38;;;1.50;96.10;;;;;;5031771;28;20053;-72
2020/12/02 09:16:31;;;;;;;45.08;24.05;;;1.40;96.60;;;;;;5031182;28;20350;-74
2020/12/02 09:18:58;;;;;;;39.22;20.70;;;1.40;96.30;;;;;;5030772;28;20128;-73
2020/12/02 09:21:26;;;;;;;40.80;21.58;;;1.50;96.60;;;;;;5030984;28;20141;-73
2020/12/02 09:23:54;;;;;;;44.55;22.95;;;1.60;96.50;;;;;;5031012;28;20053;-74
2020/12/02 09:26:22;;;;;;;43.63;23.13;;;1.60;96.30;;;;;;5029742;28;20156;-74
2020/12/02 09:28:50;;;;;;;42.08;22.55;;;1.50;96.40;;;;;;5030788;28;20088;-72
2020/12/02 09:31:19;;;;;;;38.47;21.35;;;1.50;96.50;;;;;;5029501;28;20233;-72
2020/12/02 09:33:46;;;;;;;37.55;19.88;;;1.60;96.40;;;;;;5030656;28;20526;-72
2020/12/02 09:36:14;;;;;;;39.28;21.05;;;1.60;96.40;;;;;;5029375;28;20128;-72
2020/12/02 09:38:41;;;;;;;40.80;22.13;;;1.60;96.30;;;;;;5028717;28;20122;-73
2020/12/02 09:41:39;;;;;;;40.50;22.27;;;1.70;96.30;;;;;;5031089;28;20164;-73
2020/12/02 09:44:18;;;;;;;40.17;21.10;;;1.70;96.30;;;;;;5030699;28;20165;-73
2020/12/02 09:46:52;;;;;;;41.75;21.50;;;1.70;96.00;;;;;;5029734;28;20057;-73
2020/12/02 09:49:21;;;;;;;43.80;21.52;;;1.70;96.00;;;;;;5022757;28;20059;-73
2020/12/02 09:52:00;;;;;;;50.28;23.85;;;1.70;95.80;;;;;;5026322;28;20532;-73
2020/12/02 09:54:28;;;;;;;36.92;19.67;;;1.70;96.10;;;;;;5031035;28;20049;-73
2020/12/02 09:56:55;;;;;;;46.10;21.95;;;1.70;96.10;;;;;;5030913;28;20080;-73
2020/12/02 09:59:21;;;;;;;59.47;25.05;;;1.80;95.90;;;;;;5031235;28;20114;-72
2020/12/02 10:01:57;;;;;;;39.35;21.00;;;1.60;95.80;;;;;;5030395;28;20069;-73
2020/12/02 10:04:47;;;;;;;53.05;24.33;;;1.60;96.60;;;;;;5028973;28;20460;-73
2020/12/02 10:07:27;;;;;;;40.33;21.00;;;1.70;96.40;;;;;;5030446;28;20080;-74
2020/12/02 10:10:13;;;;;;;41.75;20.60;;;1.70;96.40;;;;;;5029060;28;20128;-72
2020/12/02 10:12:48;;;;;;;50.65;25.17;;;1.70;96.00;;;;;;5030135;28;20046;-73
2020/12/02 10:15:41;;;;;;;52.38;24.10;;;1.70;96.00;;;;;;5031193;28;20143;-73
2020/12/02 10:18:32;;;;;;;48.58;22.95;;;1.70;95.80;;;;;;5027758;28;20129;-73
2020/12/02 10:21:20;;;;;;;41.70;21.58;;;1.50;96.20;;;;;;5030066;28;20057;-73
2020/12/02 10:24:04;;;;;;;40.20;19.95;;;1.60;96.50;;;;;;5030344;28;20463;-73
2020/12/02 10:26:33;;;;;;;40.03;20.23;;;1.60;96.40;;;;;;5010509;28;20100;-73
2020/12/02 10:29:18;;;;;;;49.10;23.88;;;1.70;96.10;;;;;;5010689;28;20045;-72
2020/12/02 10:32:12;;;;;;;35.80;20.60;;;1.70;95.80;;;;;;5025726;28;20105;-72
2020/12/02 10:34:42;;;;;;;53.42;23.63;;;1.70;96.20;;;;;;5029555;28;20053;-73
2020/12/02 10:37:27;;;;;;;49.17;23.13;;;1.70;95.70;;;;;;5029764;28;20091;-72
2020/12/02 10:39:53;;;;;;;42.17;20.63;;;1.70;95.60;;;;;;5029980;28;20104;-72
2020/12/02 10:42:20;;;;;;;43.85;20.75;;;1.80;95.90;;;;;;5030080;28;20107;-72
2020/12/02 10:45:10;;;;;;;37.42;18.85;;;1.90;96.00;;;;;;5030880;28;20049;-73
2020/12/02 10:47:40;;;;;;;35.42;18.13;;;1.80;95.50;;;;;;5029594;28;20083;-74
2020/12/02 10:50:08;;;;;;;37.83;18.95;;;1.90;95.50;;;;;;5028420;28;20146;-73
2020/12/02 10:52:34;;;;;;;41.38;19.85;;;1.90;95.60;;;;;;5029831;28;20483;-73
2020/12/02 10:55:03;;;;;;;40.88;20.25;;;1.90;95.50;;;;;;5028662;28;20128;-73
2020/12/02 10:57:29;;;;;;;37.00;17.77;;;1.80;95.00;;;;;;5029044;28;20053;-73
2020/12/02 10:59:58;;;;;;;37.13;19.23;;;1.80;95.60;;;;;;5029657;28;20091;-72
2020/12/02 11:02:28;;;;;;;40.67;21.00;;;1.90;95.50;;;;;;5028898;28;20074;-72
2020/12/02 11:04:57;;;;;;;48.70;22.13;;;1.80;95.00;;;;;;5029130;28;20057;-72
2020/12/02 11:07:33;;;;;;;35.90;17.95;;;1.60;95.30;;;;;;5028875;28;20483;-72
2020/12/02 11:10:10;;;;;;;36.55;18.50;;;1.80;95.80;;;;;;5028452;28;20120;-72
2020/12/02 11:12:57;;;;;;;35.97;19.05;;;1.90;95.30;;;;;;5029436;28;20045;-72
2020/12/02 11:16:03;;;;;;;35.13;19.73;;;1.90;95.30;;;;;;5028800;28;20062;-72
2020/12/02 11:19:00;;;;;;;40.20;19.10;;;1.80;95.40;;;;;;5027155;28;20140;-73
2020/12/02 11:21:32;;;;;;;38.05;20.05;;;1.80;95.20;;;;;;5025164;28;20485;-72
2020/12/02 11:24:35;;;;;;;43.67;21.48;;;1.80;95.00;;;;;;5009717;28;20409;-72
2020/12/02 11:27:03;;;;;;;44.88;21.20;;;1.70;95.10;;;;;;5008913;28;20153;-73
2020/12/02 11:29:30;;;;;;;37.10;19.33;;;1.60;95.70;;;;;;5027028;28;20569;-72
2020/12/02 11:32:08;;;;;;;38.03;21.08;;;1.60;95.90;;;;;;5029674;28;20424;-73
2020/12/02 11:34:46;;;;;;;46.10;21.60;;;1.70;95.80;;;;;;5028491;28;20176;-72
2020/12/02 11:37:41;;;;;;;39.42;20.73;;;1.60;95.20;;;;;;5015913;28;20069;-72
2020/12/02 11:40:12;;;;;;;43.03;21.60;;;1.60;95.50;;;;;;5025659;28;20136;-73
2020/12/02 11:43:03;;;;;;;39.35;21.15;;;1.50;95.10;;;;;;5026506;28;20145;-72
2020/12/02 11:45:36;;;;;;;41.15;20.70;;;1.50;95.70;;;;;;5026613;28;20073;-72
2020/12/02 11:48:13;;;;;;;48.05;22.08;;;1.50;95.60;;;;;;5026717;28;20042;-71
2020/12/02 11:50:51;;;;;;;48.35;23.02;;;1.40;95.60;;;;;;5026755;28;20192;-71
2020/12/02 11:53:36;;;;;;;42.05;20.35;;;1.30;95.90;;;;;;5027203;28;20144;-72
2020/12/02 11:56:09;;;;;;;42.25;20.65;;;1.30;96.30;;;;;;5028716;28;20053;-72
2020/12/02 11:58:35;;;;;;;38.13;18.95;;;1.40;96.20;;;;;;5028465;28;20045;-72
2020/12/02 12:01:17;;;;;;;43.55;22.13;;;1.40;95.70;;;;;;5029485;28;20049;-72
2020/12/02 12:04:22;;;;;;;45.38;22.73;;;1.30;95.80;;;;;;5032417;28;20136;-71
2020/12/02 12:06:53;;;;;;;45.65;21.17;;;1.10;95.90;;;;;;4998419;28;20086;-71
2020/12/02 12:09:42;;;;;;;41.95;20.33;;;1.20;96.10;;;;;;5029934;28;20061;-71
2020/12/02 12:12:46;;;;;;;37.72;20.60;;;1.10;96.10;;;;;;5021279;28;20517;-71
2020/12/02 12:15:46;;;;;;;37.78;19.05;;;1.20;96.20;;;;;;5023586;28;20960;-71
2020/12/02 12:18:38;;;;;;;35.85;18.10;;;1.20;96.10;;;;;;5022819;28;20473;-72
2020/12/02 12:21:22;;;;;;;33.25;17.25;;;1.30;96.30;;;;;;5031034;28;20144;-72
2020/12/02 12:24:04;;;;;;;42.13;20.35;;;1.20;95.60;;;;;;5031041;28;20389;-72
2020/12/02 12:26:40;;;;;;;35.38;18.25;;;1.10;95.90;;;;;;5029713;28;20502;-71
2020/12/02 12:29:10;;;;;;;38.97;18.90;;;1.10;95.80;;;;;;5031227;28;20120;-72
2020/12/02 12:31:47;;;;;;;38.15;19.60;;;1.10;95.90;;;;;;5031153;28;20601;-72
2020/12/02 12:34:40;;;;;;;35.58;18.55;;;1.20;95.90;;;;;;5029930;28;20049;-71
2020/12/02 12:37:18;;;;;;;36.28;19.92;;;1.20;95.40;;;;;;5026820;28;20042;-72
2020/12/02 12:39:55;;;;;;;30.35;16.50;;;1.10;95.70;;;;;;5029987;28;20069;-71
2020/12/02 12:42:23;;;;;;;33.00;17.80;;;1.20;95.90;;;;;;5031948;28;20045;-71
2020/12/02 12:44:50;;;;;;;35.05;18.33;;;1.40;95.70;;;;;;5029973;28;20152;-71
2020/12/02 12:47:33;;;;;;;39.83;17.65;;;1.40;95.30;;;;;;5029152;28;20045;-71
2020/12/02 12:50:03;;;;;;;34.85;18.30;;;1.30;95.00;;;;;;5029878;28;20122;-71
2020/12/02 12:52:33;;;;;;;37.97;20.05;;;1.30;95.40;;;;;;5032269;28;20107;-71
2020/12/02 12:55:00;;;;;;;31.73;17.55;;;1.20;95.50;;;;;;5045685;28;20092;-71
2020/12/02 12:57:28;;;;;;;31.95;17.67;;;1.20;95.80;;;;;;5030715;28;20049;-72
2020/12/02 13:00:02;;;;;;;29.30;15.95;;;1.40;95.70;;;;;;5031420;28;20048;-72
2020/12/02 13:02:32;;;;;;;33.15;16.98;;;1.40;95.30;;;;;;5031319;28;20095;-72